sensor_id;sensor_type;location;lat;lon;timestamp;pressure;altitude;pressure_sealevel;temperature;humidity
70976;BME280;58635;51.198;6.010;2024-02-21T00:01:27;102158.72;;;12.62;59.66
70976;BME280;58635;51.198;6.010;2024-02-21T00:03:52;102156.75;;;12.64;59.57
70976;BME280;58635;51.198;6.010;2024-02-21T00:06:18;102153.34;;;12.64;59.76
70976;BME280;58635;51.198;6.010;2024-02-21T00:08:43;102159.34;;;12.64;59.71
70976;BME280;58635;51.198;6.010;2024-02-21T00:11:09;102150.94;;;12.62;59.92
70976;BME280;58635;51.198;6.010;2024-02-21T00:13:34;102144.13;;;12.61;59.83
70976;BME280;58635;51.198;6.010;2024-02-21T00:16:00;102144.94;;;12.62;59.71
70976;BME280;58635;51.198;6.010;2024-02-21T00:18:26;102140.53;;;12.62;59.81
70976;BME280;58635;51.198;6.010;2024-02-21T00:20:51;102133.38;;;12.64;59.74
70976;BME280;58635;51.198;6.010;2024-02-21T00:23:17;102134.00;;;12.66;59.92
70976;BME280;58635;51.198;6.010;2024-02-21T00:25:43;102139.06;;;12.68;59.70
70976;BME280;58635;51.198;6.010;2024-02-21T00:28:08;102137.91;;;12.70;59.67
70976;BME280;58635;51.198;6.010;2024-02-21T00:30:33;102134.31;;;12.71;59.71
70976;BME280;58635;51.198;6.010;2024-02-21T00:32:59;102138.69;;;12.71;59.73
70976;BME280;58635;51.198;6.010;2024-02-21T00:35:24;102138.69;;;12.71;59.74
70976;BME280;58635;51.198;6.010;2024-02-21T00:37:51;102133.50;;;12.71;59.67
70976;BME280;58635;51.198;6.010;2024-02-21T00:40:16;102133.34;;;12.72;59.72
70976;BME280;58635;51.198;6.010;2024-02-21T00:42:45;102129.75;;;12.73;59.80
70976;BME280;58635;51.198;6.010;2024-02-21T00:45:11;102131.53;;;12.73;59.75
70976;BME280;58635;51.198;6.010;2024-02-21T00:47:36;102124.56;;;12.73;59.90
70976;BME280;58635;51.198;6.010;2024-02-21T00:50:02;102125.53;;;12.72;59.67
70976;BME280;58635;51.198;6.010;2024-02-21T00:52:27;102124.91;;;12.70;59.76
70976;BME280;58635;51.198;6.010;2024-02-21T00:54:52;102123.31;;;12.69;59.95
70976;BME280;58635;51.198;6.010;2024-02-21T00:57:19;102127.50;;;12.70;59.92
70976;BME280;58635;51.198;6.010;2024-02-21T00:59:45;102112.13;;;12.69;59.77
70976;BME280;58635;51.198;6.010;2024-02-21T01:02:10;102104.34;;;12.69;59.87
70976;BME280;58635;51.198;6.010;2024-02-21T01:04:35;102098.47;;;12.67;59.90
70976;BME280;58635;51.198;6.010;2024-02-21T01:07:01;102097.34;;;12.69;59.93
70976;BME280;58635;51.198;6.010;2024-02-21T01:09:27;102098.97;;;12.70;59.84
70976;BME280;58635;51.198;6.010;2024-02-21T01:11:52;102092.16;;;12.69;60.10
70976;BME280;58635;51.198;6.010;2024-02-21T01:14:18;102088.75;;;12.69;59.99
70976;BME280;58635;51.198;6.010;2024-02-21T01:16:43;102087.94;;;12.68;59.88
70976;BME280;58635;51.198;6.010;2024-02-21T01:19:08;102081.94;;;12.68;60.11
70976;BME280;58635;51.198;6.010;2024-02-21T01:21:34;102082.75;;;12.68;60.07
70976;BME280;58635;51.198;6.010;2024-02-21T01:23:59;102061.19;;;12.68;60.18
70976;BME280;58635;51.198;6.010;2024-02-21T01:26:25;102069.78;;;12.68;60.05
70976;BME280;58635;51.198;6.010;2024-02-21T01:28:50;102080.97;;;12.69;60.21
70976;BME280;58635;51.198;6.010;2024-02-21T01:31:15;102071.22;;;12.71;59.97
70976;BME280;58635;51.198;6.010;2024-02-21T01:33:41;102062.44;;;12.72;60.47
70976;BME280;58635;51.198;6.010;2024-02-21T01:36:06;102051.88;;;12.73;60.00
70976;BME280;58635;51.198;6.010;2024-02-21T01:38:32;102050.25;;;12.72;60.05
70976;BME280;58635;51.198;6.010;2024-02-21T01:40:58;102055.63;;;12.71;59.98
70976;BME280;58635;51.198;6.010;2024-02-21T01:43:23;102057.25;;;12.72;60.10
70976;BME280;58635;51.198;6.010;2024-02-21T01:45:51;102060.47;;;12.74;60.10
70976;BME280;58635;51.198;6.010;2024-02-21T01:48:18;102046.69;;;12.73;60.16
70976;BME280;58635;51.198;6.010;2024-02-21T01:50:45;102043.28;;;12.73;59.92
70976;BME280;58635;51.198;6.010;2024-02-21T01:53:11;102031.09;;;12.73;60.00
70976;BME280;58635;51.198;6.010;2024-02-21T01:55:46;102032.53;;;12.76;59.86
70976;BME280;58635;51.198;6.010;2024-02-21T01:58:13;102023.75;;;12.77;60.07
70976;BME280;58635;51.198;6.010;2024-02-21T02:00:40;102016.16;;;12.75;60.03
70976;BME280;58635;51.198;6.010;2024-02-21T02:03:08;102016.97;;;12.76;59.92
70976;BME280;58635;51.198;6.010;2024-02-21T02:05:35;102007.38;;;12.76;59.93
70976;BME280;58635;51.198;6.010;2024-02-21T02:08:01;102012.38;;;12.78;59.92
70976;BME280;58635;51.198;6.010;2024-02-21T02:10:26;102011.44;;;12.79;59.97
70976;BME280;58635;51.198;6.010;2024-02-21T02:12:52;102014.03;;;12.79;60.01
70976;BME280;58635;51.198;6.010;2024-02-21T02:15:17;102010.59;;;12.78;59.97
70976;BME280;58635;51.198;6.010;2024-02-21T02:17:43;102014.38;;;12.76;59.91
70976;BME280;58635;51.198;6.010;2024-02-21T02:20:08;102020.53;;;12.75;60.09
70976;BME280;58635;51.198;6.010;2024-02-21T02:22:35;102012.75;;;12.75;59.92
70976;BME280;58635;51.198;6.010;2024-02-21T02:25:03;102016.97;;;12.76;59.84
70976;BME280;58635;51.198;6.010;2024-02-21T02:27:28;102021.34;;;12.75;60.02
70976;BME280;58635;51.198;6.010;2024-02-21T02:29:53;102017.13;;;12.74;59.88
70976;BME280;58635;51.198;6.010;2024-02-21T02:32:19;102017.75;;;12.76;60.09
70976;BME280;58635;51.198;6.010;2024-02-21T02:34:44;102018.75;;;12.75;59.82
70976;BME280;58635;51.198;6.010;2024-02-21T02:37:10;102011.94;;;12.74;60.02
70976;BME280;58635;51.198;6.010;2024-02-21T02:39:35;102012.75;;;12.75;60.00
70976;BME280;58635;51.198;6.010;2024-02-21T02:42:01;101997.97;;;12.75;59.90
70976;BME280;58635;51.198;6.010;2024-02-21T02:44:27;101991.63;;;12.78;60.10
70976;BME280;58635;51.198;6.010;2024-02-21T02:46:52;101989.03;;;12.78;59.86
70976;BME280;58635;51.198;6.010;2024-02-21T02:49:18;101976.22;;;12.76;59.50
70976;BME280;58635;51.198;6.010;2024-02-21T02:51:43;101981.78;;;12.73;59.66
70976;BME280;58635;51.198;6.010;2024-02-21T02:54:09;101987.97;;;12.72;59.56
70976;BME280;58635;51.198;6.010;2024-02-21T02:56:35;101981.16;;;12.71;59.49
70976;BME280;58635;51.198;6.010;2024-02-21T02:59:00;101986.53;;;12.70;59.70
70976;BME280;58635;51.198;6.010;2024-02-21T03:01:25;101988.75;;;12.73;59.64
70976;BME280;58635;51.198;6.010;2024-02-21T03:03:51;101985.19;;;12.74;59.56
70976;BME280;58635;51.198;6.010;2024-02-21T03:06:16;101976.78;;;12.72;59.87
70976;BME280;58635;51.198;6.010;2024-02-21T03:08:42;101968.00;;;12.73;59.62
70976;BME280;58635;51.198;6.010;2024-02-21T03:11:08;101956.00;;;12.72;59.81
70976;BME280;58635;51.198;6.010;2024-02-21T03:13:33;101971.59;;;12.72;59.67
70976;BME280;58635;51.198;6.010;2024-02-21T03:15:59;101976.16;;;12.70;59.56
70976;BME280;58635;51.198;6.010;2024-02-21T03:18:24;101961.09;;;12.65;59.72
70976;BME280;58635;51.198;6.010;2024-02-21T03:20:50;101968.88;;;12.65;59.57
70976;BME280;58635;51.198;6.010;2024-02-21T03:23:15;101948.28;;;12.64;59.41
70976;BME280;58635;51.198;6.010;2024-02-21T03:25:41;101951.06;;;12.62;59.53
70976;BME280;58635;51.198;6.010;2024-02-21T03:28:06;101941.69;;;12.61;59.37
70976;BME280;58635;51.198;6.010;2024-02-21T03:30:31;101938.09;;;12.62;59.42
70976;BME280;58635;51.198;6.010;2024-02-21T03:32:57;101942.47;;;12.62;59.28
70976;BME280;58635;51.198;6.010;2024-02-21T03:35:22;101943.28;;;12.62;59.22
70976;BME280;58635;51.198;6.010;2024-02-21T03:37:51;101931.28;;;12.61;59.35
70976;BME280;58635;51.198;6.010;2024-02-21T03:40:17;101935.69;;;12.61;59.19
70976;BME280;58635;51.198;6.010;2024-02-21T03:42:42;101935.88;;;12.59;59.20
70976;BME280;58635;51.198;6.010;2024-02-21T03:45:08;101926.66;;;12.56;59.42
70976;BME280;58635;51.198;6.010;2024-02-21T03:47:34;101926.47;;;12.58;59.40
70976;BME280;58635;51.198;6.010;2024-02-21T03:49:59;101919.50;;;12.58;59.42
70976;BME280;58635;51.198;6.010;2024-02-21T03:52:25;101903.91;;;12.58;59.48
70976;BME280;58635;51.198;6.010;2024-02-21T03:54:50;101899.72;;;12.57;59.47
70976;BME280;58635;51.198;6.010;2024-02-21T03:57:16;101905.09;;;12.56;59.51
70976;BME280;58635;51.198;6.010;2024-02-21T03:59:42;101897.44;;;12.54;59.68
70976;BME280;58635;51.198;6.010;2024-02-21T04:02:08;101886.25;;;12.54;59.52
70976;BME280;58635;51.198;6.010;2024-02-21T04:04:35;101884.47;;;12.54;59.54
70976;BME280;58635;51.198;6.010;2024-02-21T04:07:02;101894.06;;;12.54;59.74
70976;BME280;58635;51.198;6.010;2024-02-21T04:09:32;101888.06;;;12.53;59.52
70976;BME280;58635;51.198;6.010;2024-02-21T04:11:59;101889.22;;;12.51;59.68
70976;BME280;58635;51.198;6.010;2024-02-21T04:14:24;101883.84;;;12.52;59.75
70976;BME280;58635;51.198;6.010;2024-02-21T04:16:50;101877.06;;;12.51;59.69
70976;BME280;58635;51.198;6.010;2024-02-21T04:19:15;101881.44;;;12.51;59.71
70976;BME280;58635;51.198;6.010;2024-02-21T04:21:40;101884.66;;;12.53;59.56
70976;BME280;58635;51.198;6.010;2024-02-21T04:24:06;101885.81;;;12.50;59.45
70976;BME280;58635;51.198;6.010;2024-02-21T04:26:31;101883.22;;;12.50;59.53
70976;BME280;58635;51.198;6.010;2024-02-21T04:28:57;101884.84;;;12.51;59.63
70976;BME280;58635;51.198;6.010;2024-02-21T04:31:22;101880.63;;;12.50;59.55
70976;BME280;58635;51.198;6.010;2024-02-21T04:33:47;101879.22;;;12.48;59.58
70976;BME280;58635;51.198;6.010;2024-02-21T04:36:13;101881.00;;;12.47;59.56
70976;BME280;58635;51.198;6.010;2024-02-21T04:38:38;101882.00;;;12.46;59.47
70976;BME280;58635;51.198;6.010;2024-02-21T04:41:04;101885.56;;;12.45;59.47
70976;BME280;58635;51.198;6.010;2024-02-21T04:43:30;101876.78;;;12.46;59.56
70976;BME280;58635;51.198;6.010;2024-02-21T04:45:55;101877.31;;;12.42;59.81
70976;BME280;58635;51.198;6.010;2024-02-21T04:48:20;101880.28;;;12.39;59.87
70976;BME280;58635;51.198;6.010;2024-02-21T04:50:46;101876.25;;;12.36;59.78
70976;BME280;58635;51.198;6.010;2024-02-21T04:53:11;101875.25;;;12.37;60.03
70976;BME280;58635;51.198;6.010;2024-02-21T04:55:37;101882.88;;;12.39;59.93
70976;BME280;58635;51.198;6.010;2024-02-21T04:58:02;101879.47;;;12.38;59.96
70976;BME280;58635;51.198;6.010;2024-02-21T05:00:28;101874.28;;;12.38;59.78
70976;BME280;58635;51.198;6.010;2024-02-21T05:02:53;101879.47;;;12.38;60.00
70976;BME280;58635;51.198;6.010;2024-02-21T05:05:18;101880.44;;;12.37;60.16
70976;BME280;58635;51.198;6.010;2024-02-21T05:07:44;101882.69;;;12.40;59.89
70976;BME280;58635;51.198;6.010;2024-02-21T05:10:09;101878.47;;;12.39;59.73
70976;BME280;58635;51.198;6.010;2024-02-21T05:12:35;101875.09;;;12.39;59.87
70976;BME280;58635;51.198;6.010;2024-02-21T05:15:00;101874.28;;;12.38;59.85
70976;BME280;58635;51.198;6.010;2024-02-21T05:17:26;101868.28;;;12.38;59.84
70976;BME280;58635;51.198;6.010;2024-02-21T05:19:51;101863.47;;;12.35;59.84
70976;BME280;58635;51.198;6.010;2024-02-21T05:22:16;101868.66;;;12.35;59.84
70976;BME280;58635;51.198;6.010;2024-02-21T05:24:42;101862.47;;;12.36;59.85
70976;BME280;58635;51.198;6.010;2024-02-21T05:27:07;101852.91;;;12.36;59.96
70976;BME280;58635;51.198;6.010;2024-02-21T05:29:33;101853.72;;;12.37;59.75
70976;BME280;58635;51.198;6.010;2024-02-21T05:31:58;101852.09;;;12.36;59.77
70976;BME280;58635;51.198;6.010;2024-02-21T05:34:24;101858.47;;;12.33;59.95
70976;BME280;58635;51.198;6.010;2024-02-21T05:36:51;101851.28;;;12.35;59.87
70976;BME280;58635;51.198;6.010;2024-02-21T05:39:16;101859.06;;;12.35;59.86
70976;BME280;58635;51.198;6.010;2024-02-21T05:41:42;101854.69;;;12.36;59.95
70976;BME280;58635;51.198;6.010;2024-02-21T05:44:07;101839.94;;;12.36;59.85
70976;BME280;58635;51.198;6.010;2024-02-21T05:46:33;101831.16;;;12.37;59.69
70976;BME280;58635;51.198;6.010;2024-02-21T05:48:58;101825.97;;;12.37;59.66
70976;BME280;58635;51.198;6.010;2024-02-21T05:51:24;101824.19;;;12.38;59.73
70976;BME280;58635;51.198;6.010;2024-02-21T05:53:49;101824.38;;;12.36;59.65
70976;BME280;58635;51.198;6.010;2024-02-21T05:56:14;101822.56;;;12.37;59.59
70976;BME280;58635;51.198;6.010;2024-02-21T05:58:40;101817.56;;;12.35;59.69
70976;BME280;58635;51.198;6.010;2024-02-21T06:01:05;101814.00;;;12.36;59.70
70976;BME280;58635;51.198;6.010;2024-02-21T06:03:32;101820.78;;;12.37;59.72
70976;BME280;58635;51.198;6.010;2024-02-21T06:05:58;101807.19;;;12.35;59.70
70976;BME280;58635;51.198;6.010;2024-02-21T06:08:24;101811.41;;;12.36;59.77
70976;BME280;58635;51.198;6.010;2024-02-21T06:10:49;101801.19;;;12.35;59.63
70976;BME280;58635;51.198;6.010;2024-02-21T06:13:17;101807.63;;;12.39;59.62
70976;BME280;58635;51.198;6.010;2024-02-21T06:15:42;101814.25;;;12.41;59.54
70976;BME280;58635;51.198;6.010;2024-02-21T06:18:07;101812.00;;;12.38;59.68
70976;BME280;58635;51.198;6.010;2024-02-21T06:20:33;101807.81;;;12.37;59.85
70976;BME280;58635;51.198;6.010;2024-02-21T06:23:01;101796.44;;;12.38;59.81
70976;BME280;58635;51.198;6.010;2024-02-21T06:25:26;101797.88;;;12.41;59.86
70976;BME280;58635;51.198;6.010;2024-02-21T06:27:52;101781.50;;;12.40;59.44
70976;BME280;58635;51.198;6.010;2024-02-21T06:30:17;101778.91;;;12.40;59.70
70976;BME280;58635;51.198;6.010;2024-02-21T06:32:42;101785.69;;;12.41;59.88
70976;BME280;58635;51.198;6.010;2024-02-21T06:35:08;101781.31;;;12.42;59.73
70976;BME280;58635;51.198;6.010;2024-02-21T06:37:33;101784.28;;;12.39;59.74
70976;BME280;58635;51.198;6.010;2024-02-21T06:39:59;101775.69;;;12.38;59.85
70976;BME280;58635;51.198;6.010;2024-02-21T06:42:25;101772.47;;;12.36;59.83
70976;BME280;58635;51.198;6.010;2024-02-21T06:44:50;101769.09;;;12.36;59.64
70976;BME280;58635;51.198;6.010;2024-02-21T06:47:16;101769.09;;;12.36;59.65
70976;BME280;58635;51.198;6.010;2024-02-21T06:49:41;101765.06;;;12.33;59.76
70976;BME280;58635;51.198;6.010;2024-02-21T06:52:07;101771.06;;;12.34;59.83
70976;BME280;58635;51.198;6.010;2024-02-21T06:54:32;101776.44;;;12.32;59.88
70976;BME280;58635;51.198;6.010;2024-02-21T06:56:58;101769.59;;;12.31;59.88
70976;BME280;58635;51.198;6.010;2024-02-21T06:59:23;101774.00;;;12.30;60.03
70976;BME280;58635;51.198;6.010;2024-02-21T07:01:51;101780.16;;;12.29;59.92
70976;BME280;58635;51.198;6.010;2024-02-21T07:04:16;101776.94;;;12.27;59.92
70976;BME280;58635;51.198;6.010;2024-02-21T07:06:42;101768.38;;;12.27;59.83
70976;BME280;58635;51.198;6.010;2024-02-21T07:09:07;101783.13;;;12.26;59.86
70976;BME280;58635;51.198;6.010;2024-02-21T07:11:33;101778.94;;;12.25;59.97
70976;BME280;58635;51.198;6.010;2024-02-21T07:13:58;101780.72;;;12.25;59.93
70976;BME280;58635;51.198;6.010;2024-02-21T07:16:23;101782.31;;;12.26;59.88
70976;BME280;58635;51.198;6.010;2024-02-21T07:18:49;101772.75;;;12.26;60.04
70976;BME280;58635;51.198;6.010;2024-02-21T07:21:14;101780.16;;;12.29;59.85
70976;BME280;58635;51.198;6.010;2024-02-21T07:23:43;101781.16;;;12.28;59.89
70976;BME280;58635;51.198;6.010;2024-02-21T07:26:09;101776.78;;;12.29;59.82
70976;BME280;58635;51.198;6.010;2024-02-21T07:28:34;101768.38;;;12.27;59.82
70976;BME280;58635;51.198;6.010;2024-02-21T07:31:00;101768.72;;;12.24;59.92
70976;BME280;58635;51.198;6.010;2024-02-21T07:33:25;101764.53;;;12.23;60.13
70976;BME280;58635;51.198;6.010;2024-02-21T07:35:51;101759.16;;;12.24;60.14
70976;BME280;58635;51.198;6.010;2024-02-21T07:38:16;101761.13;;;12.22;60.16
70976;BME280;58635;51.198;6.010;2024-02-21T07:40:46;101755.94;;;12.22;59.99
70976;BME280;58635;51.198;6.010;2024-02-21T07:43:11;101749.78;;;12.23;60.11
70976;BME280;58635;51.198;6.010;2024-02-21T07:45:37;101756.38;;;12.26;60.00
70976;BME280;58635;51.198;6.010;2024-02-21T07:48:07;101749.41;;;12.26;59.92
70976;BME280;58635;51.198;6.010;2024-02-21T07:50:32;101750.84;;;12.29;60.06
70976;BME280;58635;51.198;6.010;2024-02-21T07:52:58;101740.03;;;12.25;60.31
70976;BME280;58635;51.198;6.010;2024-02-21T07:55:23;101744.22;;;12.26;60.42
70976;BME280;58635;51.198;6.010;2024-02-21T07:57:49;101737.06;;;12.28;60.44
70976;BME280;58635;51.198;6.010;2024-02-21T08:00:15;101743.03;;;12.29;60.26
70976;BME280;58635;51.198;6.010;2024-02-21T08:02:48;101739.47;;;12.30;60.21
70976;BME280;58635;51.198;6.010;2024-02-21T08:05:14;101732.34;;;12.32;60.16
70976;BME280;58635;51.198;6.010;2024-02-21T08:07:39;101729.75;;;12.32;60.27
70976;BME280;58635;51.198;6.010;2024-02-21T08:10:05;101708.97;;;12.32;60.21
70976;BME280;58635;51.198;6.010;2024-02-21T08:12:33;101717.38;;;12.34;60.26
70976;BME280;58635;51.198;6.010;2024-02-21T08:14:58;101708.78;;;12.34;60.14
70976;BME280;58635;51.198;6.010;2024-02-21T08:17:24;101704.41;;;12.34;60.33
70976;BME280;58635;51.198;6.010;2024-02-21T08:19:49;101707.44;;;12.38;60.41
70976;BME280;58635;51.198;6.010;2024-02-21T08:22:15;101709.41;;;12.36;60.13
70976;BME280;58635;51.198;6.010;2024-02-21T08:24:41;101706.81;;;12.36;60.19
70976;BME280;58635;51.198;6.010;2024-02-21T08:27:06;101691.69;;;12.39;60.06
70976;BME280;58635;51.198;6.010;2024-02-21T08:29:32;101683.72;;;12.41;59.79
70976;BME280;58635;51.198;6.010;2024-02-21T08:31:58;101683.72;;;12.41;59.82
70976;BME280;58635;51.198;6.010;2024-02-21T08:34:23;101675.75;;;12.42;59.88
70976;BME280;58635;51.198;6.010;2024-02-21T08:36:48;101676.81;;;12.48;59.67
70976;BME280;58635;51.198;6.010;2024-02-21T08:39:14;101659.69;;;12.53;59.65
70976;BME280;58635;51.198;6.010;2024-02-21T08:41:42;101657.00;;;12.62;59.57
70976;BME280;58635;51.198;6.010;2024-02-21T08:44:08;101660.81;;;12.66;59.16
70976;BME280;58635;51.198;6.010;2024-02-21T08:46:33;101662.59;;;12.65;59.46
70976;BME280;58635;51.198;6.010;2024-02-21T08:48:59;101655.47;;;12.67;59.29
70976;BME280;58635;51.198;6.010;2024-02-21T08:51:24;101647.03;;;12.65;59.25
70976;BME280;58635;51.198;6.010;2024-02-21T08:53:50;101649.81;;;12.64;59.20
70976;BME280;58635;51.198;6.010;2024-02-21T08:56:15;101638.81;;;12.62;59.09
70976;BME280;58635;51.198;6.010;2024-02-21T08:58:41;101638.03;;;12.61;59.24
70976;BME280;58635;51.198;6.010;2024-02-21T09:01:07;101631.03;;;12.62;59.10
70976;BME280;58635;51.198;6.010;2024-02-21T09:03:36;101621.88;;;12.66;59.21
70976;BME280;58635;51.198;6.010;2024-02-21T09:06:02;101625.13;;;12.68;59.13
70976;BME280;58635;51.198;6.010;2024-02-21T09:08:28;101617.94;;;12.70;59.03
70976;BME280;58635;51.198;6.010;2024-02-21T09:10:53;101614.34;;;12.71;58.90
70976;BME280;58635;51.198;6.010;2024-02-21T09:13:19;101598.59;;;12.72;58.84
70976;BME280;58635;51.198;6.010;2024-02-21T09:15:44;101597.41;;;12.75;58.60
70976;BME280;58635;51.198;6.010;2024-02-21T09:18:10;101593.63;;;12.77;58.71
70976;BME280;58635;51.198;6.010;2024-02-21T09:20:35;101589.69;;;12.81;58.63
70976;BME280;58635;51.198;6.010;2024-02-21T09:23:00;101579.53;;;12.86;58.32
70976;BME280;58635;51.198;6.010;2024-02-21T09:25:26;101582.38;;;12.92;58.54
70976;BME280;58635;51.198;6.010;2024-02-21T09:27:54;101578.59;;;12.94;57.86
70976;BME280;58635;51.198;6.010;2024-02-21T09:30:19;101572.41;;;12.95;57.95
70976;BME280;58635;51.198;6.010;2024-02-21T09:32:44;101571.81;;;13.00;57.71
70976;BME280;58635;51.198;6.010;2024-02-21T09:35:10;101570.22;;;12.99;57.18
70976;BME280;58635;51.198;6.010;2024-02-21T09:37:35;101572.22;;;12.97;57.35
70976;BME280;58635;51.198;6.010;2024-02-21T09:40:01;101570.03;;;13.00;57.12
70976;BME280;58635;51.198;6.010;2024-02-21T09:42:37;101585.25;;;13.03;56.63
70976;BME280;58635;51.198;6.010;2024-02-21T09:50:50;101563.50;;;13.04;56.66
70976;BME280;58635;51.198;6.010;2024-02-21T09:53:17;101574.09;;;13.09;56.56
70976;BME280;58635;51.198;6.010;2024-02-21T09:55:44;101566.56;;;13.14;56.52
70976;BME280;58635;51.198;6.010;2024-02-21T09:58:10;101561.34;;;13.14;56.34
70976;BME280;58635;51.198;6.010;2024-02-21T10:00:36;101550.56;;;13.17;56.49
70976;BME280;58635;51.198;6.010;2024-02-21T10:03:02;101539.63;;;13.22;56.14
70976;BME280;58635;51.198;6.010;2024-02-21T10:05:33;101537.44;;;13.26;56.02
70976;BME280;58635;51.198;6.010;2024-02-21T10:07:59;101542.88;;;13.31;55.93
70976;BME280;58635;51.198;6.010;2024-02-21T10:10:24;101542.91;;;13.37;55.99
70976;BME280;58635;51.198;6.010;2024-02-21T10:12:50;101531.13;;;13.41;55.70
70976;BME280;58635;51.198;6.010;2024-02-21T10:15:20;101517.56;;;13.46;55.55
70976;BME280;58635;51.198;6.010;2024-02-21T10:17:59;101515.56;;;13.48;55.49
70976;BME280;58635;51.198;6.010;2024-02-21T10:20:25;101504.16;;;13.49;55.33
70976;BME280;58635;51.198;6.010;2024-02-21T10:23:00;101500.00;;;13.55;55.23
70976;BME280;58635;51.198;6.010;2024-02-21T10:25:35;101497.00;;;13.58;55.14
70976;BME280;58635;51.198;6.010;2024-02-21T10:28:04;101491.25;;;13.62;55.19
70976;BME280;58635;51.198;6.010;2024-02-21T10:30:29;101484.44;;;13.68;54.99
70976;BME280;58635;51.198;6.010;2024-02-21T10:32:54;101481.06;;;13.74;54.89
70976;BME280;58635;51.198;6.010;2024-02-21T10:35:27;101474.28;;;13.80;54.70
70976;BME280;58635;51.198;6.010;2024-02-21T10:37:54;101462.88;;;13.81;54.61
70976;BME280;58635;51.198;6.010;2024-02-21T10:40:28;101451.88;;;13.79;54.66
70976;BME280;58635;51.198;6.010;2024-02-21T10:42:57;101447.47;;;13.79;54.67
70976;BME280;58635;51.198;6.010;2024-02-21T10:45:29;101440.88;;;13.83;54.68
70976;BME280;58635;51.198;6.010;2024-02-21T10:48:01;101429.88;;;13.88;54.74
70976;BME280;58635;51.198;6.010;2024-02-21T10:50:30;101424.28;;;13.91;54.57
70976;BME280;58635;51.198;6.010;2024-02-21T10:53:22;101416.66;;;13.96;54.27
70976;BME280;58635;51.198;6.010;2024-02-21T10:55:56;101405.06;;;13.92;54.60
70976;BME280;58635;51.198;6.010;2024-02-21T10:58:24;101392.47;;;14.02;54.34
70976;BME280;58635;51.198;6.010;2024-02-21T11:00:51;101378.06;;;14.06;54.10
70976;BME280;58635;51.198;6.010;2024-02-21T11:03:16;101364.03;;;14.07;54.07
70976;BME280;58635;51.198;6.010;2024-02-21T11:05:42;101347.66;;;14.13;54.06
70976;BME280;58635;51.198;6.010;2024-02-21T11:08:10;101351.44;;;14.17;53.85
70976;BME280;58635;51.198;6.010;2024-02-21T11:10:36;101344.03;;;14.21;53.92
70976;BME280;58635;51.198;6.010;2024-02-21T11:15:32;101348.19;;;14.35;53.76
70976;BME280;58635;51.198;6.010;2024-02-21T11:17:57;101342.97;;;14.42;53.54
70976;BME280;58635;51.198;6.010;2024-02-21T11:20:35;101323.38;;;14.46;53.15
70976;BME280;58635;51.198;6.010;2024-02-21T11:23:01;101317.16;;;14.47;53.26
70976;BME280;58635;51.198;6.010;2024-02-21T11:25:28;101329.75;;;14.56;53.07
70976;BME280;58635;51.198;6.010;2024-02-21T11:28:00;101348.16;;;14.61;53.05
70976;BME280;58635;51.198;6.010;2024-02-21T11:30:32;101355.53;;;14.65;52.63
70976;BME280;58635;51.198;6.010;2024-02-21T11:33:06;101351.75;;;14.60;52.92
70976;BME280;58635;51.198;6.010;2024-02-21T11:35:33;101337.94;;;14.60;53.06
70976;BME280;58635;51.198;6.010;2024-02-21T11:38:12;101326.09;;;14.64;53.09
70976;BME280;58635;51.198;6.010;2024-02-21T11:40:43;101312.88;;;14.66;53.03
70976;BME280;58635;51.198;6.010;2024-02-21T11:43:09;101305.25;;;14.71;52.97
70976;BME280;58635;51.198;6.010;2024-02-21T11:45:35;101309.63;;;14.77;52.88
70976;BME280;58635;51.198;6.010;2024-02-21T11:48:00;101302.00;;;14.82;52.89
70976;BME280;58635;51.198;6.010;2024-02-21T11:50:28;101285.59;;;14.81;52.70
70976;BME280;58635;51.198;6.010;2024-02-21T11:52:54;101279.72;;;14.86;52.68
70976;BME280;58635;51.198;6.010;2024-02-21T11:55:20;101278.69;;;14.94;52.58
70976;BME280;58635;51.198;6.010;2024-02-21T11:57:48;101266.84;;;14.98;52.37
70976;BME280;58635;51.198;6.010;2024-02-21T12:00:17;101275.25;;;15.00;52.15
70976;BME280;58635;51.198;6.010;2024-02-21T12:02:45;101259.41;;;15.01;52.07
70976;BME280;58635;51.198;6.010;2024-02-21T12:05:11;101259.56;;;15.06;51.86
70976;BME280;58635;51.198;6.010;2024-02-21T12:07:37;101249.53;;;15.10;51.84
70976;BME280;58635;51.198;6.010;2024-02-21T12:10:13;101241.28;;;15.13;51.84
70976;BME280;58635;51.198;6.010;2024-02-21T12:12:39;101239.25;;;15.15;51.60
70976;BME280;58635;51.198;6.010;2024-02-21T12:15:05;101223.22;;;15.18;51.55
70976;BME280;58635;51.198;6.010;2024-02-21T12:17:37;101204.75;;;15.19;51.21
70976;BME280;58635;51.198;6.010;2024-02-21T12:20:03;101213.94;;;15.22;50.95
70976;BME280;58635;51.198;6.010;2024-02-21T12:22:31;101204.91;;;15.25;50.56
70976;BME280;58635;51.198;6.010;2024-02-21T12:24:58;101192.69;;;15.25;50.78
70976;BME280;58635;51.198;6.010;2024-02-21T12:27:24;101203.69;;;15.27;51.27
70976;BME280;58635;51.198;6.010;2024-02-21T12:29:50;101200.59;;;15.37;51.11
70976;BME280;58635;51.198;6.010;2024-02-21T12:32:16;101195.31;;;15.43;50.89
70976;BME280;58635;51.198;6.010;2024-02-21T12:34:41;101189.06;;;15.51;50.64
70976;BME280;58635;51.198;6.010;2024-02-21T12:37:06;101172.75;;;15.56;50.36
70976;BME280;58635;51.198;6.010;2024-02-21T12:39:32;101153.88;;;15.60;50.14
70976;BME280;58635;51.198;6.010;2024-02-21T12:41:58;101132.59;;;15.63;50.10
70976;BME280;58635;51.198;6.010;2024-02-21T12:44:23;101136.78;;;15.64;50.16
70976;BME280;58635;51.198;6.010;2024-02-21T12:46:49;101114.47;;;15.68;49.96
70976;BME280;58635;51.198;6.010;2024-02-21T12:49:17;101122.41;;;15.73;49.56
70976;BME280;58635;51.198;6.010;2024-02-21T12:51:43;101121.78;;;15.78;49.46
70976;BME280;58635;51.198;6.010;2024-02-21T12:54:08;101113.88;;;15.85;49.62